createdAt,value
2022-08-07T00:02:35.585Z,60.17
2022-08-07T00:04:09.391Z,59.94
2022-08-07T00:06:51.109Z,60.27
2022-08-07T00:09:22.615Z,60.48
2022-08-07T00:11:56.166Z,60.34
2022-08-07T00:14:31.292Z,60.13
2022-08-07T00:17:03.292Z,60.22
2022-08-07T00:19:59.649Z,60.18
2022-08-07T00:22:24.670Z,59.74
2022-08-07T00:25:15.788Z,59.83
2022-08-07T00:27:52.440Z,59.77
2022-08-07T00:30:27.249Z,60.11
2022-08-07T00:33:02.849Z,59.61
2022-08-07T00:35:30.676Z,59.58
2022-08-07T00:38:02.102Z,59.41
2022-08-07T00:40:39.704Z,59.39
2022-08-07T00:44:00.948Z,59.43
2022-08-07T00:46:02.546Z,59.03
2022-08-07T00:48:31.960Z,59.32
2022-08-07T00:51:02.888Z,58.97
2022-08-07T00:53:39.101Z,59.32
2022-08-07T00:56:17.591Z,59.28
2022-08-07T00:58:47.081Z,59.20
2022-08-07T01:01:16.278Z,59.22
2022-08-07T01:03:56.904Z,59.11
2022-08-07T01:06:30.032Z,59.29
2022-08-07T01:09:01.166Z,59.31
2022-08-07T01:12:23.970Z,59.05
2022-08-07T01:14:28.487Z,59.29
2022-08-07T01:16:57.395Z,59.19
2022-08-07T01:19:27.007Z,59.14
2022-08-07T01:21:59.862Z,58.89
2022-08-07T01:24:30.676Z,58.73
2022-08-07T01:26:58.513Z,58.92
2022-08-07T01:29:31.300Z,58.92
2022-08-07T01:32:05.480Z,59.12
2022-08-07T01:34:39.344Z,58.62
2022-08-07T01:37:09.538Z,58.60
2022-08-07T01:39:41.246Z,59.02
2022-08-07T01:42:38.292Z,58.85
2022-08-07T01:45:09.727Z,58.52
2022-08-07T01:48:20.647Z,58.63
2022-08-07T01:50:32.735Z,58.16
2022-08-07T01:53:08.661Z,58.25
2022-08-07T01:56:06.664Z,58.52
2022-08-07T01:58:45.235Z,57.83
2022-08-07T02:01:58.739Z,57.82
2022-08-07T02:04:30.379Z,57.98
2022-08-07T02:07:03.641Z,58.24
2022-08-07T02:09:52.402Z,58.14
2022-08-07T02:12:31.064Z,58.34
2022-08-07T02:15:01.498Z,58.02
2022-08-07T02:17:35.131Z,58.10
2022-08-07T02:20:17.228Z,57.82
2022-08-07T02:22:47.904Z,58.07
2022-08-07T02:26:10.405Z,58.53
2022-08-07T02:28:14.505Z,58.33
2022-08-07T02:30:54.308Z,58.28
2022-08-07T02:33:42.110Z,58.09
2022-08-07T02:36:30.728Z,57.98
2022-08-07T02:39:16.684Z,57.98
2022-08-07T02:41:54.905Z,58.12
2022-08-07T02:44:27.760Z,58.11
2022-08-07T02:47:04.368Z,57.74
2022-08-07T02:49:57.550Z,57.95
2022-08-07T02:52:31.951Z,58.10
2022-08-07T02:55:15.613Z,57.41
2022-08-07T02:58:03.267Z,57.76
2022-08-07T03:00:35.522Z,58.10
2022-08-07T03:03:08.094Z,57.64
2022-08-07T03:05:42.633Z,57.38
2022-08-07T03:08:11.580Z,57.60
2022-08-07T03:10:40.670Z,57.55
2022-08-07T03:13:09.081Z,57.25
2022-08-07T03:15:55.534Z,57.75
2022-08-07T03:18:34.275Z,57.28
2022-08-07T03:21:08.797Z,56.40
2022-08-07T03:24:20.897Z,56.80
2022-08-07T03:29:03.345Z,56.06
2022-08-07T03:31:43.476Z,56.65
2022-08-07T03:34:18.462Z,56.61
2022-08-07T03:36:51.881Z,56.23
2022-08-07T03:39:59.884Z,56.37
2022-08-07T03:42:10.067Z,56.49
2022-08-07T03:44:38.903Z,55.86
2022-08-07T03:47:13.802Z,55.27
2022-08-07T03:49:47.656Z,56.03
2022-08-07T03:52:27.772Z,56.01
2022-08-07T03:55:07.348Z,55.98
2022-08-07T03:58:34.438Z,56.00
2022-08-07T04:00:29.112Z,55.86
2022-08-07T04:03:03.862Z,55.34
2022-08-07T04:05:39.801Z,56.07
2022-08-07T04:08:20.925Z,55.92
2022-08-07T04:10:53.857Z,55.19
2022-08-07T04:13:27.729Z,55.32
2022-08-07T04:15:55.700Z,55.61
2022-08-07T04:18:56.509Z,55.58
2022-08-07T04:21:12.666Z,55.35
2022-08-07T04:24:03.326Z,55.38
2022-08-07T04:26:32.032Z,55.67
2022-08-07T04:28:59.660Z,55.95
2022-08-07T04:31:38.689Z,54.88
2022-08-07T04:34:23.913Z,54.97
2022-08-07T04:36:55.208Z,55.22
2022-08-07T04:39:25.953Z,54.88
2022-08-07T04:41:53.828Z,54.62
2022-08-07T04:44:21.561Z,54.77
2022-08-07T04:47:08.074Z,55.65
2022-08-07T04:50:03.667Z,55.42
2022-08-07T04:52:52.477Z,55.08
2022-08-07T04:58:13.256Z,54.97
2022-08-07T05:02:04.519Z,54.93
2022-08-07T05:05:01.286Z,54.82
2022-08-07T05:07:48.358Z,54.92
2022-08-07T05:10:29.908Z,55.42
2022-08-07T05:14:52.820Z,54.63
2022-08-07T05:16:21.267Z,55.16
2022-08-07T05:19:02.921Z,54.27
2022-08-07T05:21:59.900Z,55.17
2022-08-07T05:24:24.623Z,54.83
2022-08-07T05:27:01.036Z,54.53
2022-08-07T05:29:48.043Z,54.88
2022-08-07T05:32:19.628Z,54.28
2022-08-07T05:34:49.724Z,54.73
2022-08-07T05:37:25.277Z,54.17
2022-08-07T05:40:06.793Z,54.14
2022-08-07T05:42:41.225Z,54.76
2022-08-07T05:45:14.602Z,54.15
2022-08-07T05:48:01.157Z,54.69
2022-08-07T05:50:34.249Z,54.75
2022-08-07T05:53:05.033Z,53.88
2022-08-07T05:56:02.184Z,54.73
2022-08-07T05:58:36.853Z,54.88
2022-08-07T06:01:10.485Z,54.48
2022-08-07T06:03:56.848Z,54.14
2022-08-07T06:06:29.888Z,54.79
2022-08-07T06:09:01.411Z,54.61
2022-08-07T06:11:34.391Z,54.14
2022-08-07T06:14:12.339Z,54.57
2022-08-07T06:16:45.613Z,54.10
2022-08-07T06:19:52.253Z,54.66
2022-08-07T06:22:15.816Z,54.60
2022-08-07T06:24:58.331Z,54.48
2022-08-07T06:27:59.990Z,54.73
2022-08-07T06:30:36.021Z,54.77
2022-08-07T06:33:05.772Z,54.57
2022-08-07T06:35:47.824Z,54.04
2022-08-07T06:38:30.977Z,54.61
2022-08-07T06:41:03.162Z,55.05
2022-08-07T06:43:39.807Z,54.99
2022-08-07T06:46:12.140Z,54.47
2022-08-07T06:48:41.973Z,54.12
2022-08-07T06:51:31.170Z,54.39
2022-08-07T06:55:28.604Z,54.40
2022-08-07T06:56:52.111Z,55.10
2022-08-07T07:00:17.545Z,54.60
2022-08-07T07:02:53.390Z,54.64
2022-08-07T07:05:13.574Z,54.61
2022-08-07T07:08:06.427Z,54.59
2022-08-07T07:10:35.965Z,54.44
2022-08-07T07:13:56.498Z,54.50
2022-08-07T07:16:19.514Z,54.69
2022-08-07T07:18:55.014Z,54.69
2022-08-07T07:22:05.191Z,54.29
2022-08-07T07:24:18.349Z,54.75
2022-08-07T07:26:51.711Z,54.34
2022-08-07T07:29:40.315Z,52.79
2022-08-07T07:32:04.958Z,53.47
2022-08-07T07:34:35.384Z,49.80
2022-08-07T07:37:21.781Z,49.77
2022-08-07T07:40:03.316Z,50.40
2022-08-07T07:42:39.341Z,50.90
2022-08-07T07:45:09.052Z,51.13
2022-08-07T07:47:52.627Z,51.42
2022-08-07T07:50:35.021Z,51.64
2022-08-07T07:53:13.660Z,52.53
2022-08-07T07:55:57.806Z,52.11
2022-08-07T07:58:40.250Z,51.26
2022-08-07T08:02:01.737Z,51.87
2022-08-07T08:04:09.522Z,51.23
2022-08-07T08:06:50.902Z,52.08
2022-08-07T08:09:29.131Z,50.55
2022-08-07T08:12:01.614Z,51.67
2022-08-07T08:14:36.008Z,52.01
2022-08-07T08:17:14.201Z,51.58
2022-08-07T08:20:18.691Z,50.10
2022-08-07T08:23:14.254Z,51.23
2022-08-07T08:26:06.825Z,51.52
2022-08-07T08:28:43.364Z,50.93
2022-08-07T08:31:30.211Z,50.03
2022-08-07T08:34:19.003Z,51.15
2022-08-07T08:36:58.507Z,52.21
2022-08-07T08:39:39.408Z,51.37
2022-08-07T08:42:40.520Z,49.83
2022-08-07T08:45:58.742Z,50.50
2022-08-07T08:49:19.275Z,50.30
2022-08-07T08:52:14.096Z,49.18
2022-08-07T08:54:56.089Z,50.47
2022-08-07T08:57:52.922Z,50.91
2022-08-07T09:00:21.601Z,49.63
2022-08-07T09:03:47.450Z,48.57
2022-08-07T09:06:37.008Z,49.98
2022-08-07T09:09:47.464Z,48.17
2022-08-07T09:12:32.322Z,48.82
2022-08-07T09:16:22.377Z,49.94
2022-08-07T09:19:52.214Z,48.79
2022-08-07T09:24:32.369Z,49.36
2022-08-07T09:26:13.270Z,49.21
2022-08-07T09:30:05.704Z,49.93
2022-08-07T09:31:54.916Z,50.38
2022-08-07T09:36:05.187Z,49.54
2022-08-07T09:38:12.180Z,48.49
2022-08-07T09:41:03.523Z,49.57
2022-08-07T09:44:19.428Z,48.95
2022-08-07T09:50:23.360Z,50.34
2022-08-07T09:53:02.379Z,47.89
2022-08-07T09:56:02.479Z,49.11
2022-08-07T10:01:57.997Z,48.88
2022-08-07T10:05:16.137Z,47.98
2022-08-07T10:08:10.412Z,47.11
2022-08-07T10:12:01.104Z,47.72
2022-08-07T10:14:22.979Z,48.52
2022-08-07T10:17:27.359Z,48.76
2022-08-07T10:20:30.263Z,47.42
2022-08-07T10:24:05.621Z,47.69
2022-08-07T10:27:46.022Z,48.96
2022-08-07T10:30:20.681Z,47.34
2022-08-07T10:34:13.967Z,48.57
2022-08-07T10:38:00.398Z,49.33
2022-08-07T10:40:37.025Z,46.85
2022-08-07T10:43:39.065Z,47.26
2022-08-07T10:46:16.022Z,45.97
2022-08-07T10:48:51.299Z,47.18
2022-08-07T10:52:02.339Z,46.83
2022-08-07T10:55:01.346Z,47.59
2022-08-07T10:57:56.562Z,46.20
2022-08-07T11:00:36.910Z,46.25
2022-08-07T11:03:17.474Z,46.65
2022-08-07T11:06:04.863Z,46.91
2022-08-07T11:08:53.423Z,46.96
2022-08-07T11:11:51.885Z,46.20
2022-08-07T11:15:00.111Z,45.31
2022-08-07T11:18:04.729Z,46.44
2022-08-07T11:20:43.746Z,47.37
2022-08-07T11:23:48.435Z,47.16
2022-08-07T11:26:48.331Z,47.23
2022-08-07T11:32:13.696Z,45.91
2022-08-07T11:35:04.440Z,46.37
2022-08-07T11:38:12.428Z,47.53
2022-08-07T11:40:56.628Z,46.74
2022-08-07T11:43:54.409Z,46.36
2022-08-07T11:46:48.687Z,46.61
2022-08-07T11:50:31.948Z,47.14
2022-08-07T11:53:35.124Z,46.88
2022-08-07T11:56:27.220Z,47.11
2022-08-07T12:00:11.063Z,46.30
2022-08-07T12:02:52.107Z,46.44
2022-08-07T12:05:48.895Z,46.54
2022-08-07T12:08:26.047Z,46.83
2022-08-07T12:11:43.196Z,45.56
2022-08-07T12:14:56.375Z,46.37
2022-08-07T12:17:58.644Z,46.87
2022-08-07T12:22:36.373Z,46.25
2022-08-07T12:26:00.334Z,46.68
2022-08-07T12:28:09.769Z,47.94
2022-08-07T12:30:46.935Z,47.66
2022-08-07T12:33:30.691Z,46.68
2022-08-07T12:36:15.918Z,46.32
2022-08-07T12:38:57.051Z,46.72
2022-08-07T12:41:29.193Z,46.58
2022-08-07T12:44:17.340Z,46.51
2022-08-07T12:47:03.290Z,47.25
2022-08-07T12:49:50.978Z,46.94
2022-08-07T12:52:35.452Z,46.72
2022-08-07T12:55:24.907Z,46.99
2022-08-07T12:58:13.194Z,46.67
2022-08-07T13:01:08.053Z,47.14
2022-08-07T13:03:59.365Z,48.01
2022-08-07T13:08:14.139Z,47.69
2022-08-07T13:10:39.701Z,47.09
2022-08-07T13:13:47.352Z,46.96
2022-08-07T13:16:29.449Z,47.13
2022-08-07T13:19:50.942Z,46.79
2022-08-07T13:22:33.160Z,46.76
2022-08-07T13:25:24.216Z,47.35
2022-08-07T13:28:12.829Z,46.50
2022-08-07T13:30:53.273Z,47.39
2022-08-07T13:34:31.278Z,48.22
2022-08-07T13:37:19.816Z,46.66
2022-08-07T13:40:36.188Z,47.10
2022-08-07T13:43:16.166Z,46.93
2022-08-07T13:46:11.255Z,48.48
2022-08-07T13:48:51.873Z,46.30
2022-08-07T13:52:04.896Z,47.61
2022-08-07T13:54:23.543Z,47.48
2022-08-07T13:56:59.555Z,47.79
2022-08-07T13:59:31.621Z,47.30
2022-08-07T14:02:10.123Z,46.93
2022-08-07T14:04:54.692Z,47.46
2022-08-07T14:07:33.587Z,47.77
2022-08-07T14:10:16.486Z,47.32
2022-08-07T14:12:56.860Z,46.77
2022-08-07T14:15:43.756Z,47.63
2022-08-07T14:18:37.088Z,46.64
2022-08-07T14:22:01.166Z,46.68
2022-08-07T14:24:41.318Z,46.31
2022-08-07T14:28:09.432Z,46.35
2022-08-07T14:30:12.379Z,46.95
2022-08-07T14:32:45.794Z,47.05
2022-08-07T14:35:43.387Z,46.62
2022-08-07T14:38:26.231Z,46.64
2022-08-07T14:43:57.950Z,47.39
2022-08-07T14:46:31.493Z,46.24
2022-08-07T14:49:17.466Z,47.04
2022-08-07T14:52:02.862Z,47.30
2022-08-07T14:54:41.645Z,47.04
2022-08-07T14:57:19.513Z,47.31
2022-08-07T15:02:39.087Z,46.97
2022-08-07T15:05:20.068Z,46.57
2022-08-07T15:07:52.054Z,46.41
2022-08-07T15:10:29.601Z,46.43
2022-08-07T15:13:06.339Z,46.64
2022-08-07T15:15:52.585Z,46.35
2022-08-07T15:21:58.496Z,46.82
2022-08-07T15:25:15.715Z,46.75
2022-08-07T15:27:29.986Z,46.87
2022-08-07T15:30:16.146Z,46.82
2022-08-07T15:33:01.392Z,47.13
2022-08-07T15:36:01.147Z,47.12
2022-08-07T15:38:33.257Z,46.90
2022-08-07T15:41:24.327Z,46.81
2022-08-07T15:44:10.781Z,46.79
2022-08-07T15:46:51.844Z,46.42
2022-08-07T15:50:06.133Z,46.99
2022-08-07T15:52:30.447Z,46.76
2022-08-07T15:55:03.570Z,47.65
2022-08-07T15:57:40.338Z,46.36
2022-08-07T16:00:31.449Z,47.46
2022-08-07T16:03:22.019Z,46.71
2022-08-07T16:05:59.179Z,46.91
2022-08-07T16:08:38.211Z,47.01
2022-08-07T16:11:26.761Z,46.42
2022-08-07T16:14:20.615Z,46.84
2022-08-07T16:17:16.218Z,46.17
2022-08-07T16:20:37.511Z,46.52
2022-08-07T16:23:52.202Z,46.65
2022-08-07T16:26:31.007Z,46.05
2022-08-07T16:30:10.267Z,46.74
2022-08-07T16:32:34.972Z,46.46
2022-08-07T16:35:59.446Z,46.58
2022-08-07T16:38:10.297Z,46.48
2022-08-07T16:41:02.417Z,46.38
2022-08-07T16:44:53.872Z,46.77
2022-08-07T16:47:51.439Z,47.09
2022-08-07T16:51:20.975Z,47.20
2022-08-07T16:54:09.300Z,47.06
2022-08-07T16:56:40.687Z,46.42
2022-08-07T16:59:23.069Z,47.14
2022-08-07T17:02:52.957Z,47.48
2022-08-07T17:06:19.572Z,47.21
2022-08-07T17:09:10.477Z,47.35
2022-08-07T17:12:04.523Z,47.00
2022-08-07T17:14:54.173Z,46.96
2022-08-07T17:17:44.261Z,46.91
2022-08-07T17:20:37.801Z,46.93
2022-08-07T17:23:31.880Z,46.86
2022-08-07T17:26:48.215Z,46.09
2022-08-07T17:30:14.284Z,46.75
2022-08-07T17:32:51.839Z,47.06
2022-08-07T17:35:54.962Z,46.63
2022-08-07T17:38:52.458Z,46.66
2022-08-07T17:42:04.072Z,46.26
2022-08-07T17:44:49.790Z,46.28
2022-08-07T17:47:45.694Z,46.74
2022-08-07T17:50:52.576Z,46.49
2022-08-07T17:54:02.354Z,47.07
2022-08-07T17:56:49.644Z,46.84
2022-08-07T17:59:45.554Z,47.15
2022-08-07T18:02:34.255Z,47.07
2022-08-07T18:05:21.668Z,46.53
2022-08-07T18:08:24.282Z,46.74
2022-08-07T18:12:07.026Z,47.27
2022-08-07T18:14:24.147Z,47.11
2022-08-07T18:18:46.567Z,46.94
2022-08-07T18:21:07.391Z,47.02
2022-08-07T18:23:43.704Z,46.76
2022-08-07T18:26:20.457Z,47.40
2022-08-07T18:30:06.227Z,47.08
2022-08-07T18:32:17.221Z,46.75
2022-08-07T18:35:21.825Z,47.60
2022-08-07T18:38:56.752Z,46.94
2022-08-07T18:41:37.743Z,47.33
2022-08-07T18:45:39.621Z,47.28
2022-08-07T18:48:00.495Z,47.65
2022-08-07T18:50:45.619Z,48.17
2022-08-07T18:53:16.701Z,47.96
2022-08-07T18:55:57.150Z,48.21
2022-08-07T18:58:52.308Z,47.70
2022-08-07T19:02:20.181Z,48.37
2022-08-07T19:04:57.472Z,48.53
2022-08-07T19:07:57.735Z,48.13
2022-08-07T19:10:49.799Z,48.38
2022-08-07T19:13:50.293Z,48.33
2022-08-07T19:17:07.645Z,48.63
2022-08-07T19:20:28.966Z,48.54
2022-08-07T19:23:18.389Z,48.79
2022-08-07T19:26:23.263Z,48.62
2022-08-07T19:30:57.411Z,49.03
2022-08-07T19:32:07.837Z,49.07
2022-08-07T19:34:55.373Z,49.37
2022-08-07T19:37:24.045Z,49.47
2022-08-07T19:40:14.198Z,49.21
2022-08-07T19:42:43.615Z,49.29
2022-08-07T19:45:21.711Z,49.39
2022-08-07T19:48:18.799Z,49.67
2022-08-07T19:50:53.286Z,49.67
2022-08-07T19:54:31.355Z,50.04
2022-08-07T19:57:51.359Z,50.48
2022-08-07T19:59:03.564Z,49.58
2022-08-07T20:01:52.803Z,50.09
2022-08-07T20:04:31.798Z,49.92
2022-08-07T20:07:00.684Z,50.17
2022-08-07T20:10:35.351Z,49.82
2022-08-07T20:12:31.901Z,50.26
2022-08-07T20:15:04.745Z,49.98
2022-08-07T20:17:38.638Z,50.01
2022-08-07T20:20:09.137Z,50.35
2022-08-07T20:22:41.437Z,50.43
2022-08-07T20:25:19.321Z,50.49
2022-08-07T20:27:54.293Z,50.45
2022-08-07T20:30:33.274Z,50.75
2022-08-07T20:33:03.352Z,50.37
2022-08-07T20:35:51.783Z,50.73
2022-08-07T20:38:24.609Z,50.47
2022-08-07T20:40:57.946Z,50.49
2022-08-07T20:43:29.388Z,50.77
2022-08-07T20:46:29.107Z,50.79
2022-08-07T20:49:54.480Z,50.84
2022-08-07T20:51:40.722Z,51.34
2022-08-07T20:54:30.127Z,51.08
2022-08-07T20:57:03.824Z,51.20
2022-08-07T21:00:06.736Z,51.37
2022-08-07T21:02:54.400Z,50.95
2022-08-07T21:05:52.467Z,51.58
2022-08-07T21:08:37.599Z,51.80
2022-08-07T21:11:14.376Z,51.65
2022-08-07T21:14:16.743Z,51.66
2022-08-07T21:17:06.394Z,51.74
2022-08-07T21:19:51.798Z,51.49
2022-08-07T21:22:34.764Z,51.47
2022-08-07T21:25:29.135Z,52.85
2022-08-07T21:28:48.763Z,51.60
2022-08-07T21:32:41.918Z,51.96
2022-08-07T21:34:46.101Z,51.78
2022-08-07T21:37:58.864Z,52.01
2022-08-07T21:40:44.227Z,52.14
2022-08-07T21:43:55.508Z,51.93
2022-08-07T21:46:38.636Z,52.08
2022-08-07T21:50:01.053Z,51.86
2022-08-07T21:52:50.545Z,52.17
2022-08-07T21:55:30.373Z,52.35
2022-08-07T21:58:29.907Z,52.32
2022-08-07T22:01:05.092Z,51.91
2022-08-07T22:03:48.367Z,52.51
2022-08-07T22:06:30.653Z,52.27
2022-08-07T22:09:08.203Z,52.33
2022-08-07T22:12:04.867Z,51.91
2022-08-07T22:14:59.439Z,52.16
2022-08-07T22:17:36.756Z,52.48
2022-08-07T22:20:10.892Z,52.09
2022-08-07T22:22:57.542Z,52.25
2022-08-07T22:26:04.958Z,52.30
2022-08-07T22:28:54.264Z,52.60
2022-08-07T22:32:03.471Z,52.68
2022-08-07T22:34:56.075Z,52.78
2022-08-07T22:38:01.973Z,52.67
2022-08-07T22:41:13.276Z,52.63
2022-08-07T22:43:50.332Z,52.39
2022-08-07T22:47:06.097Z,52.54
2022-08-07T22:50:41.861Z,52.27
2022-08-07T22:54:05.239Z,53.87
2022-08-07T22:57:17.075Z,55.77
2022-08-07T22:59:52.006Z,54.71
2022-08-07T23:02:41.273Z,56.36
2022-08-07T23:06:09.553Z,56.29
2022-08-07T23:10:04.610Z,56.00
2022-08-07T23:12:10.195Z,57.30
2022-08-07T23:14:54.465Z,55.95
2022-08-07T23:17:34.031Z,56.64
2022-08-07T23:20:52.602Z,56.43
2022-08-07T23:24:16.854Z,56.56
2022-08-07T23:27:15.656Z,57.04
2022-08-07T23:30:37.278Z,56.09
2022-08-07T23:34:34.908Z,56.60
2022-08-07T23:36:43.050Z,56.18
2022-08-07T23:39:24.487Z,55.94
2022-08-07T23:42:43.330Z,56.43
2022-08-07T23:46:01.472Z,56.27
2022-08-07T23:48:34.267Z,56.78
2022-08-07T23:53:00.750Z,56.11
2022-08-07T23:54:46.612Z,56.23
2022-08-07T23:57:36.845Z,56.40
